createdAt,value
2023-12-26T00:01:09.151Z,10.24
2023-12-26T00:03:13.938Z,10.26
2023-12-26T00:05:18.822Z,10.27
2023-12-26T00:07:24.923Z,10.30
2023-12-26T00:09:32.337Z,10.29
2023-12-26T00:11:37.218Z,10.29
2023-12-26T00:13:42.104Z,10.30
2023-12-26T00:15:47.958Z,10.30
2023-12-26T00:17:52.980Z,10.32
2023-12-26T00:19:57.917Z,10.36
2023-12-26T00:22:02.787Z,10.31
2023-12-26T00:24:09.375Z,10.31
2023-12-26T00:26:14.374Z,10.32
2023-12-26T00:28:20.808Z,10.32
2023-12-26T00:30:23.333Z,10.32
2023-12-26T00:32:28.281Z,10.32
2023-12-26T00:34:33.261Z,10.33
2023-12-26T00:36:38.126Z,10.30
2023-12-26T00:38:43.161Z,10.28
2023-12-26T00:40:48.044Z,10.30
2023-12-26T00:42:55.620Z,10.30
2023-12-26T00:44:58.198Z,10.35
2023-12-26T00:47:03.018Z,10.29
2023-12-26T00:49:08.038Z,10.33
2023-12-26T00:51:10.938Z,10.34
2023-12-26T00:53:15.768Z,10.33
2023-12-26T00:55:20.653Z,10.33
2023-12-26T00:57:25.569Z,10.35
2023-12-26T00:59:30.466Z,10.31
2023-12-26T01:01:35.178Z,10.31
2023-12-26T01:03:37.535Z,10.30
2023-12-26T01:05:42.480Z,10.31
2023-12-26T01:07:47.322Z,10.35
2023-12-26T01:09:52.250Z,10.31
2023-12-26T01:11:57.148Z,10.35
2023-12-26T01:14:02.136Z,10.31
2023-12-26T01:16:08.485Z,10.32
2023-12-26T01:18:13.961Z,10.32
2023-12-26T01:20:19.075Z,10.32
2023-12-26T01:22:23.988Z,10.28
2023-12-26T01:24:28.798Z,10.31
2023-12-26T01:26:32.216Z,10.32
2023-12-26T01:28:37.034Z,10.31
2023-12-26T01:30:41.798Z,10.30
2023-12-26T01:32:50.687Z,10.30
2023-12-26T01:34:55.674Z,10.28
2023-12-26T01:37:00.641Z,10.28
2023-12-26T01:39:03.080Z,10.29
2023-12-26T01:41:08.277Z,10.29
2023-12-26T01:43:12.445Z,10.29
2023-12-26T01:45:17.520Z,10.26
2023-12-26T01:47:27.132Z,10.26
2023-12-26T01:49:33.449Z,10.28
2023-12-26T01:51:39.668Z,10.26
2023-12-26T01:53:45.055Z,10.24
2023-12-26T01:55:50.858Z,10.24
2023-12-26T01:57:55.623Z,10.23
2023-12-26T02:00:01.466Z,10.21
2023-12-26T02:02:04.765Z,10.21
2023-12-26T02:04:09.748Z,10.17
2023-12-26T02:06:18.322Z,10.16
2023-12-26T02:08:23.731Z,10.14
2023-12-26T02:10:28.641Z,10.10
2023-12-26T02:12:33.830Z,10.08
2023-12-26T02:14:36.668Z,10.08
2023-12-26T02:16:45.768Z,10.06
2023-12-26T02:18:51.842Z,10.09
2023-12-26T02:20:54.135Z,10.05
2023-12-26T02:23:04.351Z,10.02
2023-12-26T02:25:14.089Z,10.02
2023-12-26T02:27:23.140Z,9.97
2023-12-26T02:29:27.041Z,9.95
2023-12-26T02:31:33.451Z,9.91
2023-12-26T02:33:39.701Z,9.87
2023-12-26T02:35:46.668Z,9.85
2023-12-26T02:37:52.675Z,9.84
2023-12-26T02:39:57.468Z,9.81
2023-12-26T02:42:04.921Z,9.77
2023-12-26T02:44:11.193Z,9.72
2023-12-26T02:46:16.617Z,9.68
2023-12-26T02:48:19.649Z,9.68
2023-12-26T02:50:25.126Z,9.62
2023-12-26T02:52:28.118Z,9.66
2023-12-26T02:54:32.969Z,9.60
2023-12-26T02:56:37.804Z,9.59
2023-12-26T02:58:45.226Z,9.60
2023-12-26T03:00:50.652Z,9.53
2023-12-26T03:02:53.111Z,9.57
2023-12-26T03:04:58.121Z,9.54
2023-12-26T03:07:00.536Z,9.55
2023-12-26T03:09:05.550Z,9.55
2023-12-26T03:11:10.951Z,9.55
2023-12-26T03:13:16.074Z,9.53
2023-12-26T03:15:23.805Z,9.51
2023-12-26T03:17:32.474Z,9.45
2023-12-26T03:19:37.650Z,9.38
2023-12-26T03:21:42.464Z,9.42
2023-12-26T03:23:47.397Z,9.42
2023-12-26T03:25:52.220Z,9.39
2023-12-26T03:27:54.671Z,9.33
2023-12-26T03:29:59.688Z,9.25
2023-12-26T03:32:07.716Z,9.20
2023-12-26T03:34:10.998Z,9.14
2023-12-26T03:36:18.931Z,9.12
2023-12-26T03:38:23.770Z,9.12
2023-12-26T03:40:28.635Z,9.07
2023-12-26T03:42:33.816Z,9.00
2023-12-26T03:44:36.557Z,9.02
2023-12-26T03:46:45.459Z,8.97
2023-12-26T03:48:53.295Z,8.91
2023-12-26T03:51:00.067Z,8.85
2023-12-26T03:53:04.907Z,8.90
2023-12-26T03:55:07.980Z,8.77
2023-12-26T03:57:12.926Z,8.89
2023-12-26T03:59:17.867Z,8.76
2023-12-26T04:01:22.908Z,8.69
2023-12-26T04:03:27.823Z,8.62
2023-12-26T04:05:35.502Z,8.61
2023-12-26T04:07:41.477Z,8.61
2023-12-26T04:09:47.204Z,8.60
2023-12-26T04:11:52.152Z,8.48
2023-12-26T04:13:57.232Z,8.45
2023-12-26T04:16:02.335Z,8.48
2023-12-26T04:18:08.153Z,8.50
2023-12-26T04:20:14.010Z,8.36
2023-12-26T04:22:21.777Z,8.27
2023-12-26T04:24:24.097Z,8.23
2023-12-26T04:26:29.248Z,8.32
2023-12-26T04:28:34.623Z,8.39
2023-12-26T04:30:39.888Z,8.26
2023-12-26T04:32:44.790Z,8.25
2023-12-26T04:34:47.159Z,8.28
2023-12-26T04:36:52.055Z,8.19
2023-12-26T04:38:59.420Z,8.17
2023-12-26T04:41:04.203Z,8.15
2023-12-26T04:43:09.896Z,8.11
2023-12-26T04:45:13.447Z,8.07
2023-12-26T04:47:18.544Z,7.97
2023-12-26T04:49:23.444Z,8.05
2023-12-26T04:51:31.187Z,7.97
2023-12-26T04:53:34.027Z,8.01
2023-12-26T04:55:41.852Z,7.95
2023-12-26T04:57:46.865Z,7.92
2023-12-26T04:59:51.809Z,7.96
2023-12-26T05:01:56.770Z,7.93
2023-12-26T05:04:01.699Z,7.93
2023-12-26T05:06:07.141Z,7.91
2023-12-26T05:08:12.880Z,7.94
2023-12-26T05:10:17.889Z,7.91
2023-12-26T05:12:25.533Z,7.88
2023-12-26T05:14:30.560Z,7.98
2023-12-26T05:16:35.529Z,8.01
2023-12-26T05:18:38.422Z,7.94
2023-12-26T05:20:43.933Z,7.88
2023-12-26T05:22:48.882Z,7.80
2023-12-26T05:24:54.019Z,7.74
2023-12-26T05:26:59.307Z,7.73
2023-12-26T05:29:04.641Z,7.69
2023-12-26T05:31:10.038Z,7.63
2023-12-26T05:33:15.370Z,7.73
2023-12-26T05:35:23.480Z,7.66
2023-12-26T05:37:28.422Z,7.67
2023-12-26T05:39:33.367Z,7.64
2023-12-26T05:41:38.241Z,7.71
2023-12-26T05:43:43.301Z,7.67
2023-12-26T05:45:50.866Z,7.71
2023-12-26T05:47:55.761Z,7.68
2023-12-26T05:50:01.985Z,7.67
2023-12-26T05:52:08.503Z,7.62
2023-12-26T05:54:13.743Z,7.59
2023-12-26T05:56:18.769Z,7.62
2023-12-26T05:58:23.758Z,7.61
2023-12-26T06:00:28.887Z,7.62
2023-12-26T06:02:36.685Z,7.52
2023-12-26T06:04:41.750Z,7.63
2023-12-26T06:06:46.988Z,7.75
2023-12-26T06:08:51.829Z,7.64
2023-12-26T06:10:56.691Z,7.60
2023-12-26T06:13:02.650Z,7.65
2023-12-26T06:15:06.018Z,7.63
2023-12-26T06:17:12.003Z,7.61
2023-12-26T06:19:22.094Z,7.64
2023-12-26T06:21:27.079Z,7.69
2023-12-26T06:23:32.940Z,7.68
2023-12-26T06:25:37.804Z,7.64
2023-12-26T06:27:42.618Z,7.63
2023-12-26T06:29:45.494Z,7.65
2023-12-26T06:31:50.084Z,7.74
2023-12-26T06:33:54.991Z,7.68
2023-12-26T06:36:02.468Z,7.72
2023-12-26T06:38:13.893Z,7.63
2023-12-26T06:40:19.908Z,7.62
2023-12-26T06:42:24.704Z,7.61
2023-12-26T06:44:29.599Z,7.61
2023-12-26T06:46:35.912Z,7.65
2023-12-26T06:48:42.332Z,7.64
2023-12-26T06:50:47.591Z,7.54
2023-12-26T06:52:55.366Z,7.44
2023-12-26T06:55:00.351Z,7.56
2023-12-26T06:57:08.693Z,7.70
2023-12-26T06:59:13.640Z,7.67
2023-12-26T07:01:18.792Z,7.80
2023-12-26T07:03:21.232Z,7.74
2023-12-26T07:05:26.341Z,7.74
2023-12-26T07:07:31.212Z,7.80
2023-12-26T07:09:38.708Z,7.88
2023-12-26T07:11:43.484Z,7.91
2023-12-26T07:13:48.372Z,7.91
2023-12-26T07:15:53.577Z,7.85
2023-12-26T07:17:59.994Z,7.83
2023-12-26T07:20:02.472Z,7.89
2023-12-26T07:22:08.481Z,7.85
2023-12-26T07:24:14.043Z,7.82
2023-12-26T07:26:22.795Z,7.85
2023-12-26T07:28:27.767Z,7.85
2023-12-26T07:30:32.717Z,7.84
2023-12-26T07:32:35.157Z,7.82
2023-12-26T07:34:40.065Z,7.85
2023-12-26T07:36:45.381Z,7.82
2023-12-26T07:38:50.773Z,7.83
2023-12-26T07:40:55.785Z,7.82
2023-12-26T07:43:03.303Z,7.78
2023-12-26T07:45:12.065Z,7.77
2023-12-26T07:47:17.185Z,7.76
2023-12-26T07:49:22.420Z,7.69
2023-12-26T07:51:28.289Z,7.70
2023-12-26T07:53:34.050Z,7.71
2023-12-26T07:55:42.237Z,7.73
2023-12-26T07:57:47.279Z,7.68
2023-12-26T07:59:54.976Z,7.69
2023-12-26T08:01:59.898Z,7.67
2023-12-26T08:04:06.007Z,7.64
2023-12-26T08:06:11.256Z,7.60
2023-12-26T08:08:16.458Z,7.59
2023-12-26T08:10:21.741Z,7.61
2023-12-26T08:12:26.931Z,7.52
2023-12-26T08:14:31.954Z,7.55
2023-12-26T08:16:41.998Z,7.50
2023-12-26T08:18:47.659Z,7.50
2023-12-26T08:20:51.839Z,7.47
2023-12-26T08:22:57.355Z,7.51
2023-12-26T08:25:02.501Z,7.54
2023-12-26T08:27:08.748Z,7.55
2023-12-26T08:29:20.617Z,7.51
2023-12-26T08:31:27.759Z,7.51
2023-12-26T08:33:38.850Z,7.52
2023-12-26T08:35:46.625Z,7.50
2023-12-26T08:37:54.542Z,7.43
2023-12-26T08:39:59.659Z,7.46
2023-12-26T08:42:04.667Z,7.45
2023-12-26T08:44:07.037Z,7.46
2023-12-26T08:46:12.263Z,7.50
2023-12-26T08:48:18.171Z,7.52
2023-12-26T08:50:28.810Z,7.54
2023-12-26T08:52:33.740Z,7.54
2023-12-26T08:54:38.765Z,7.56
2023-12-26T08:56:44.843Z,7.59
2023-12-26T08:58:52.426Z,7.61
2023-12-26T09:00:59.744Z,7.58
2023-12-26T09:03:07.416Z,7.59
2023-12-26T09:05:16.302Z,7.61
2023-12-26T09:07:24.137Z,7.62
2023-12-26T09:09:29.461Z,7.62
2023-12-26T09:11:34.377Z,7.65
2023-12-26T09:13:39.403Z,7.69
2023-12-26T09:15:44.755Z,7.68
2023-12-26T09:17:50.073Z,7.71
2023-12-26T09:19:55.004Z,7.68
2023-12-26T09:22:00.139Z,7.83
2023-12-26T09:24:08.420Z,7.75
2023-12-26T09:26:10.700Z,7.79
2023-12-26T09:28:18.404Z,7.82
2023-12-26T09:30:24.277Z,7.85
2023-12-26T09:32:29.642Z,7.87
2023-12-26T09:34:34.886Z,7.93
2023-12-26T09:36:40.013Z,7.96
2023-12-26T09:38:43.616Z,8.04
2023-12-26T09:40:51.658Z,8.09
2023-12-26T09:43:01.891Z,8.11
2023-12-26T09:45:07.795Z,8.13
2023-12-26T09:47:17.409Z,8.12
2023-12-26T09:49:28.987Z,8.10
2023-12-26T09:51:41.101Z,8.15
2023-12-26T09:53:48.423Z,8.19
2023-12-26T09:55:57.739Z,8.26
2023-12-26T09:58:03.959Z,8.29
2023-12-26T10:00:10.350Z,8.33
2023-12-26T10:02:16.762Z,8.39
2023-12-26T10:04:22.192Z,8.44
2023-12-26T10:06:24.582Z,8.45
2023-12-26T10:08:31.653Z,8.41
2023-12-26T10:10:38.859Z,8.50
2023-12-26T10:12:46.032Z,8.51
2023-12-26T10:14:51.493Z,8.55
2023-12-26T10:16:56.824Z,8.61
2023-12-26T10:19:01.759Z,8.73
2023-12-26T10:21:07.349Z,8.80
2023-12-26T10:23:12.962Z,8.84
2023-12-26T10:25:19.008Z,8.94
2023-12-26T10:27:24.825Z,9.07
2023-12-26T10:29:29.734Z,9.16
2023-12-26T10:31:35.140Z,9.26
2023-12-26T10:33:46.240Z,9.40
2023-12-26T10:36:04.775Z,9.41
2023-12-26T10:38:13.213Z,9.51
2023-12-26T10:40:19.006Z,9.47
2023-12-26T10:42:24.956Z,9.50
2023-12-26T10:44:35.182Z,9.34
2023-12-26T10:46:38.062Z,9.34
2023-12-26T10:48:46.098Z,9.27
2023-12-26T10:50:52.760Z,9.15
2023-12-26T10:52:59.565Z,9.15
2023-12-26T10:55:08.392Z,9.11
2023-12-26T10:57:14.766Z,9.05
2023-12-26T10:59:17.798Z,9.07
2023-12-26T11:01:28.656Z,9.01
2023-12-26T11:03:33.615Z,9.03
2023-12-26T11:05:35.986Z,8.97
2023-12-26T11:07:44.207Z,8.97
2023-12-26T11:09:47.544Z,8.98
2023-12-26T11:11:51.170Z,8.97
2023-12-26T11:13:56.488Z,8.93
2023-12-26T11:16:00.100Z,8.91
2023-12-26T11:18:07.682Z,8.92
2023-12-26T11:20:15.270Z,8.89
2023-12-26T11:22:20.013Z,8.87
2023-12-26T11:24:26.117Z,8.87
2023-12-26T11:26:34.679Z,8.88
2023-12-26T11:28:40.852Z,8.90
2023-12-26T11:30:46.285Z,8.88
2023-12-26T11:32:52.511Z,8.95
2023-12-26T11:34:57.859Z,8.97
2023-12-26T11:37:00.840Z,8.97
2023-12-26T11:39:06.420Z,8.93
2023-12-26T11:41:12.024Z,8.97
2023-12-26T11:43:16.893Z,8.93
2023-12-26T11:45:22.122Z,8.88
2023-12-26T11:47:24.736Z,8.90
2023-12-26T11:49:27.545Z,8.87
2023-12-26T11:51:35.167Z,8.89
2023-12-26T11:53:37.772Z,8.85
2023-12-26T11:55:40.167Z,8.85
2023-12-26T11:57:45.201Z,8.88
2023-12-26T11:59:54.676Z,8.86
2023-12-26T12:01:57.474Z,8.85
2023-12-26T12:04:02.694Z,8.89
2023-12-26T12:06:15.155Z,8.82
2023-12-26T12:08:20.357Z,8.79
2023-12-26T12:10:25.763Z,8.81
2023-12-26T12:12:28.363Z,8.76
2023-12-26T12:14:31.126Z,8.75
2023-12-26T12:16:36.242Z,8.77
2023-12-26T12:18:38.606Z,8.71
2023-12-26T12:20:41.328Z,8.71
2023-12-26T12:22:46.376Z,8.73
2023-12-26T12:24:52.074Z,8.70
2023-12-26T12:27:02.728Z,8.72
2023-12-26T12:29:07.752Z,8.70
2023-12-26T12:31:14.980Z,8.71
2023-12-26T12:33:23.697Z,8.70
2023-12-26T12:35:28.712Z,8.70
2023-12-26T12:37:34.465Z,8.72
2023-12-26T12:39:36.680Z,8.70
2023-12-26T12:41:46.796Z,8.71
2023-12-26T12:43:49.701Z,8.68
2023-12-26T12:45:52.873Z,8.72
2023-12-26T12:47:57.757Z,8.69
2023-12-26T12:50:00.594Z,8.71
2023-12-26T12:52:03.274Z,8.68
2023-12-26T12:54:08.217Z,8.69
2023-12-26T12:56:10.981Z,8.74
2023-12-26T12:58:16.416Z,8.72
2023-12-26T13:00:21.707Z,8.79
2023-12-26T13:02:24.582Z,8.70
2023-12-26T13:04:27.402Z,8.82
2023-12-26T13:06:32.631Z,8.79
2023-12-26T13:08:35.357Z,8.79
2023-12-26T13:10:37.729Z,8.81
2023-12-26T13:12:42.687Z,8.77
2023-12-26T13:14:50.250Z,8.74
2023-12-26T13:16:53.432Z,8.78
2023-12-26T13:18:58.589Z,8.73
2023-12-26T13:21:01.108Z,8.76
2023-12-26T13:23:03.420Z,8.73
2023-12-26T13:25:13.188Z,8.70
2023-12-26T13:27:23.275Z,8.72
2023-12-26T13:29:26.081Z,8.73
2023-12-26T13:31:33.947Z,8.74
2023-12-26T13:33:37.545Z,8.63
2023-12-26T13:35:40.015Z,8.67
2023-12-26T13:37:44.868Z,8.62
2023-12-26T13:39:47.167Z,8.61
2023-12-26T13:41:49.467Z,8.58
2023-12-26T13:43:55.127Z,8.54
2023-12-26T13:45:57.935Z,8.55
2023-12-26T13:48:02.771Z,8.56
2023-12-26T13:50:10.526Z,8.59
2023-12-26T13:52:14.116Z,8.53
2023-12-26T13:54:19.213Z,8.52
2023-12-26T13:56:22.057Z,8.49
2023-12-26T13:58:26.886Z,8.45
2023-12-26T14:00:29.363Z,8.42
2023-12-26T14:02:34.525Z,8.48
2023-12-26T14:04:42.752Z,8.49
2023-12-26T14:06:49.407Z,8.45
2023-12-26T14:08:56.814Z,8.48
2023-12-26T14:11:02.624Z,8.42
2023-12-26T14:13:07.658Z,8.43
2023-12-26T14:15:12.960Z,8.35
2023-12-26T14:17:17.994Z,8.34
2023-12-26T14:19:23.150Z,8.34
2023-12-26T14:21:31.063Z,8.32
2023-12-26T14:23:34.410Z,8.34
2023-12-26T14:25:39.666Z,8.28
2023-12-26T14:27:44.797Z,8.33
2023-12-26T14:29:50.316Z,8.30
2023-12-26T14:31:55.294Z,8.31
2023-12-26T14:33:57.903Z,8.30
2023-12-26T14:36:02.909Z,8.32
2023-12-26T14:38:10.672Z,8.35
2023-12-26T14:40:13.114Z,8.30
2023-12-26T14:42:17.935Z,8.32
2023-12-26T14:44:20.734Z,8.31
2023-12-26T14:46:28.162Z,8.31
2023-12-26T14:48:33.310Z,8.30
2023-12-26T14:50:36.341Z,8.27
2023-12-26T14:52:43.855Z,8.29
2023-12-26T14:54:51.896Z,8.28
2023-12-26T14:56:56.906Z,8.26
2023-12-26T14:59:02.161Z,8.27
2023-12-26T15:01:04.541Z,8.28
2023-12-26T15:03:10.247Z,8.29
2023-12-26T15:05:16.031Z,8.35
2023-12-26T15:07:22.553Z,8.28
2023-12-26T15:09:31.275Z,8.25
2023-12-26T15:11:39.052Z,8.19
2023-12-26T15:13:48.657Z,8.21
2023-12-26T15:16:00.621Z,8.12
2023-12-26T15:18:05.738Z,8.15
2023-12-26T15:20:12.653Z,8.10
2023-12-26T15:22:17.546Z,8.09
2023-12-26T15:24:22.525Z,8.07
2023-12-26T15:26:27.724Z,8.07
2023-12-26T15:28:37.812Z,8.10
2023-12-26T15:30:43.990Z,8.04
2023-12-26T15:32:49.696Z,8.04
2023-12-26T15:34:55.049Z,8.01
2023-12-26T15:37:00.582Z,8.01
2023-12-26T15:39:03.301Z,7.98
2023-12-26T15:41:08.284Z,7.98
2023-12-26T15:43:13.134Z,7.96
2023-12-26T15:45:25.727Z,7.97
2023-12-26T15:47:28.015Z,7.94
2023-12-26T15:49:33.364Z,7.89
2023-12-26T15:51:38.490Z,7.94
2023-12-26T15:53:44.658Z,7.84
2023-12-26T15:55:49.535Z,7.83
2023-12-26T15:57:55.442Z,7.78
2023-12-26T16:00:00.352Z,7.77
2023-12-26T16:02:08.346Z,7.75
2023-12-26T16:04:12.270Z,7.71
2023-12-26T16:06:23.196Z,7.70
2023-12-26T16:08:25.906Z,7.66
2023-12-26T16:10:31.095Z,7.60
2023-12-26T16:12:34.666Z,7.54
2023-12-26T16:14:39.801Z,7.54
2023-12-26T16:16:46.639Z,7.50
2023-12-26T16:18:57.901Z,7.47
2023-12-26T16:21:05.947Z,7.40
2023-12-26T16:23:11.896Z,7.38
2023-12-26T16:25:20.279Z,7.38
2023-12-26T16:27:29.534Z,7.33
2023-12-26T16:29:32.378Z,7.30
2023-12-26T16:31:38.503Z,7.25
2023-12-26T16:33:44.240Z,7.17
2023-12-26T16:35:51.874Z,7.10
2023-12-26T16:37:57.244Z,7.08
2023-12-26T16:40:05.414Z,7.06
2023-12-26T16:42:12.411Z,6.99
2023-12-26T16:44:18.353Z,6.92
2023-12-26T16:46:25.648Z,6.86
2023-12-26T16:48:31.199Z,6.79
2023-12-26T16:50:37.052Z,6.72
2023-12-26T16:52:48.510Z,6.64
2023-12-26T16:54:55.806Z,6.55
2023-12-26T16:57:00.970Z,6.47
2023-12-26T16:59:06.195Z,6.40
2023-12-26T17:01:13.919Z,6.40
2023-12-26T17:03:19.301Z,6.31
2023-12-26T17:05:26.386Z,6.23
2023-12-26T17:07:32.756Z,6.14
2023-12-26T17:09:40.516Z,6.04
2023-12-26T17:11:48.613Z,5.99
2023-12-26T17:13:52.717Z,5.99
2023-12-26T17:15:57.952Z,5.92
2023-12-26T17:18:06.746Z,5.89
2023-12-26T17:20:18.001Z,5.85
2023-12-26T17:22:24.988Z,5.79
2023-12-26T17:24:33.290Z,5.76
2023-12-26T17:26:42.532Z,5.68
2023-12-26T17:28:50.721Z,5.64
2023-12-26T17:30:56.595Z,5.62
2023-12-26T17:33:02.129Z,5.53
2023-12-26T17:35:09.415Z,5.46
2023-12-26T17:37:18.114Z,5.39
2023-12-26T17:39:23.898Z,5.35
2023-12-26T17:41:29.024Z,5.28
2023-12-26T17:43:37.128Z,5.21
2023-12-26T17:45:42.535Z,5.16
2023-12-26T17:47:47.993Z,5.09
2023-12-26T17:49:53.341Z,5.03
2023-12-26T17:52:00.075Z,4.96
2023-12-26T17:54:05.561Z,4.95
2023-12-26T17:56:10.579Z,4.87
2023-12-26T17:58:16.539Z,4.79
2023-12-26T18:00:26.310Z,4.71
2023-12-26T18:02:31.349Z,4.70
2023-12-26T18:04:36.454Z,4.65
2023-12-26T18:06:43.662Z,4.60
2023-12-26T18:08:49.124Z,4.57
2023-12-26T18:10:56.467Z,4.51
2023-12-26T18:13:01.795Z,4.48
2023-12-26T18:15:07.676Z,4.48
2023-12-26T18:17:14.449Z,4.37
2023-12-26T18:19:19.714Z,4.29
2023-12-26T18:21:29.862Z,4.25
2023-12-26T18:23:32.581Z,4.23
2023-12-26T18:25:38.165Z,4.18
2023-12-26T18:27:43.409Z,4.15
2023-12-26T18:29:51.197Z,4.08
2023-12-26T18:31:59.177Z,4.08
2023-12-26T18:34:07.420Z,4.11
2023-12-26T18:36:13.280Z,4.14
2023-12-26T18:38:21.656Z,4.08
2023-12-26T18:40:34.533Z,4.01
2023-12-26T18:42:44.396Z,3.96
2023-12-26T18:44:52.623Z,3.95
2023-12-26T18:46:58.063Z,3.93
2023-12-26T18:49:06.697Z,3.92
2023-12-26T18:51:14.872Z,3.89
2023-12-26T18:53:20.102Z,3.95
2023-12-26T18:55:23.195Z,3.90
2023-12-26T18:57:30.533Z,3.85
2023-12-26T18:59:36.224Z,3.79
2023-12-26T19:01:47.152Z,3.72
2023-12-26T19:03:57.071Z,3.68
2023-12-26T19:06:02.368Z,3.66
2023-12-26T19:08:10.632Z,3.59
2023-12-26T19:10:18.234Z,3.64
2023-12-26T19:12:23.350Z,3.59
2023-12-26T19:14:33.980Z,3.57
2023-12-26T19:16:39.726Z,3.54
2023-12-26T19:18:48.164Z,3.52
2023-12-26T19:20:51.511Z,3.45
2023-12-26T19:22:58.609Z,3.40
2023-12-26T19:25:07.063Z,3.47
2023-12-26T19:27:15.119Z,3.46
2023-12-26T19:29:23.287Z,3.49
2023-12-26T19:31:28.668Z,3.49
2023-12-26T19:33:33.239Z,3.62
2023-12-26T19:35:39.052Z,3.56
2023-12-26T19:37:45.980Z,3.46
2023-12-26T19:39:48.692Z,3.44
2023-12-26T19:41:57.145Z,3.50
2023-12-26T19:43:59.833Z,3.53
2023-12-26T19:46:15.779Z,3.49
2023-12-26T19:48:21.274Z,3.51
2023-12-26T19:50:26.800Z,3.45
2023-12-26T19:52:35.734Z,3.42
2023-12-26T19:54:41.685Z,3.39
2023-12-26T19:56:47.809Z,3.36
2023-12-26T19:58:56.332Z,3.34
2023-12-26T20:01:04.908Z,3.31
2023-12-26T20:03:18.826Z,3.36
2023-12-26T20:05:31.217Z,3.33
2023-12-26T20:07:37.708Z,3.31
2023-12-26T20:09:41.254Z,3.24
2023-12-26T20:11:46.890Z,3.25
2023-12-26T20:13:55.169Z,3.20
2023-12-26T20:16:00.162Z,3.19
2023-12-26T20:18:03.098Z,3.15
2023-12-26T20:20:09.685Z,3.14
2023-12-26T20:22:14.547Z,3.20
2023-12-26T20:24:22.942Z,3.15
2023-12-26T20:26:28.101Z,3.17
2023-12-26T20:28:31.076Z,3.16
2023-12-26T20:30:38.642Z,3.16
2023-12-26T20:32:44.229Z,3.19
2023-12-26T20:34:49.235Z,3.18
2023-12-26T20:36:51.812Z,3.11
2023-12-26T20:38:56.875Z,3.05
2023-12-26T20:41:05.841Z,3.07
2023-12-26T20:43:11.277Z,3.06
2023-12-26T20:45:16.572Z,3.03
2023-12-26T20:47:24.779Z,3.03
2023-12-26T20:49:31.130Z,3.13
2023-12-26T20:51:33.677Z,3.16
2023-12-26T20:53:38.535Z,3.14
2023-12-26T20:55:45.471Z,3.13
2023-12-26T20:57:48.748Z,3.11
2023-12-26T20:59:54.351Z,3.12
2023-12-26T21:01:59.178Z,3.19
2023-12-26T21:04:06.978Z,3.22
2023-12-26T21:06:09.536Z,3.19
2023-12-26T21:08:17.590Z,3.16
2023-12-26T21:10:23.330Z,3.11
2023-12-26T21:12:30.902Z,3.07
2023-12-26T21:14:35.878Z,3.05
2023-12-26T21:16:38.197Z,3.05
2023-12-26T21:18:43.428Z,2.99
2023-12-26T21:20:52.111Z,3.03
2023-12-26T21:22:56.963Z,3.00
2023-12-26T21:25:02.147Z,2.96
2023-12-26T21:27:07.851Z,3.00
2023-12-26T21:29:13.019Z,3.05
2023-12-26T21:31:22.249Z,2.99
2023-12-26T21:33:24.753Z,2.97
2023-12-26T21:35:31.385Z,2.96
2023-12-26T21:37:42.370Z,2.98
2023-12-26T21:39:47.367Z,2.95
2023-12-26T21:41:52.212Z,2.96
2023-12-26T21:43:57.401Z,2.94
2023-12-26T21:46:04.673Z,2.92
2023-12-26T21:48:10.176Z,2.94
2023-12-26T21:50:16.703Z,2.97
2023-12-26T21:52:18.981Z,2.96
2023-12-26T21:54:27.032Z,2.92
2023-12-26T21:56:32.158Z,2.91
2023-12-26T21:58:37.197Z,2.97
2023-12-26T22:00:49.710Z,3.00
2023-12-26T22:03:02.351Z,3.02
2023-12-26T22:05:07.866Z,3.01
2023-12-26T22:07:13.064Z,3.07
2023-12-26T22:09:17.734Z,3.11
2023-12-26T22:11:25.161Z,3.10
2023-12-26T22:13:29.987Z,3.05
2023-12-26T22:15:32.308Z,3.06
2023-12-26T22:17:37.870Z,3.06
2023-12-26T22:19:44.361Z,3.05
2023-12-26T22:21:49.215Z,3.06
2023-12-26T22:23:54.956Z,3.02
2023-12-26T22:26:00.633Z,3.00
2023-12-26T22:28:08.716Z,3.06
2023-12-26T22:30:14.494Z,3.06
2023-12-26T22:32:20.193Z,3.01
2023-12-26T22:34:28.847Z,3.05
2023-12-26T22:36:31.702Z,3.09
2023-12-26T22:38:37.419Z,3.05
2023-12-26T22:40:42.374Z,3.05
2023-12-26T22:42:47.847Z,3.03
2023-12-26T22:44:55.377Z,3.03
2023-12-26T22:47:02.376Z,3.02
2023-12-26T22:49:07.389Z,3.03
2023-12-26T22:51:18.426Z,3.03
2023-12-26T22:53:25.046Z,3.02
2023-12-26T22:55:30.001Z,3.07
2023-12-26T22:57:34.224Z,3.06
2023-12-26T22:59:39.127Z,3.06
2023-12-26T23:01:50.053Z,3.07
2023-12-26T23:03:55.100Z,3.07
2023-12-26T23:06:02.451Z,3.03
2023-12-26T23:08:08.014Z,3.02
2023-12-26T23:10:13.520Z,3.03
2023-12-26T23:12:15.959Z,3.01
2023-12-26T23:14:21.061Z,3.03
2023-12-26T23:16:26.951Z,3.05
2023-12-26T23:18:35.709Z,3.06
2023-12-26T23:20:38.830Z,3.00
2023-12-26T23:22:46.245Z,2.99
2023-12-26T23:24:51.203Z,2.96
2023-12-26T23:26:57.009Z,2.96
2023-12-26T23:28:59.413Z,2.98
2023-12-26T23:31:04.479Z,3.03
2023-12-26T23:33:09.929Z,3.07
2023-12-26T23:35:19.333Z,3.09
2023-12-26T23:37:24.361Z,3.01
2023-12-26T23:39:30.405Z,3.02
2023-12-26T23:41:42.273Z,3.06
2023-12-26T23:43:47.214Z,3.01
2023-12-26T23:45:52.405Z,2.98
2023-12-26T23:47:58.180Z,2.94
2023-12-26T23:50:03.477Z,2.92
2023-12-26T23:52:11.625Z,2.86
2023-12-26T23:54:16.501Z,2.93
2023-12-26T23:56:21.445Z,2.87
2023-12-26T23:58:27.052Z,2.86
